createdAt,value
2019-05-16T00:01:04.734Z,1.70
2019-05-16T00:03:31.356Z,1.70
2019-05-16T00:05:58.392Z,2.00
2019-05-16T00:08:25.244Z,2.20
2019-05-16T00:10:51.827Z,2.13
2019-05-16T00:13:18.701Z,2.27
2019-05-16T00:15:45.363Z,2.07
2019-05-16T00:18:12.242Z,2.17
2019-05-16T00:20:38.922Z,2.10
2019-05-16T00:23:07.781Z,2.00
2019-05-16T00:25:33.962Z,1.80
2019-05-16T00:28:00.538Z,2.10
2019-05-16T00:30:28.707Z,2.10
2019-05-16T00:32:55.695Z,1.90
2019-05-16T00:35:22.254Z,2.90
2019-05-16T00:37:48.877Z,2.93
2019-05-16T00:40:15.755Z,2.60
2019-05-16T00:42:42.362Z,3.10
2019-05-16T00:45:09.445Z,2.80
2019-05-16T00:47:38.676Z,2.90
2019-05-16T00:50:04.978Z,2.97
2019-05-16T00:52:31.585Z,2.70
2019-05-16T00:54:58.166Z,2.67
2019-05-16T00:57:25.027Z,3.10
2019-05-16T00:59:52.108Z,3.00
2019-05-16T01:02:18.667Z,2.93
2019-05-16T01:04:45.246Z,2.70
2019-05-16T01:07:12.087Z,2.80
2019-05-16T01:09:38.749Z,2.40
2019-05-16T01:12:05.456Z,2.73
2019-05-16T01:14:32.170Z,2.50
2019-05-16T01:16:58.747Z,2.37
2019-05-16T01:19:27.678Z,2.37
2019-05-16T01:21:53.798Z,2.50
2019-05-16T01:24:20.398Z,2.43
2019-05-16T01:26:59.155Z,2.40
2019-05-16T01:29:28.075Z,2.40
2019-05-16T01:31:54.290Z,2.37
2019-05-16T01:34:20.910Z,2.50
2019-05-16T01:36:48.637Z,2.23
2019-05-16T01:39:15.530Z,2.47
2019-05-16T01:41:42.165Z,2.27
2019-05-16T01:44:08.881Z,2.70
2019-05-16T01:46:35.465Z,2.57
2019-05-16T01:49:02.118Z,2.27
2019-05-16T01:51:28.931Z,2.40
2019-05-16T01:53:57.922Z,2.47
2019-05-16T01:56:24.163Z,2.70
2019-05-16T01:58:50.768Z,2.53
2019-05-16T02:01:19.060Z,2.70
2019-05-16T02:03:48.144Z,2.50
2019-05-16T02:06:14.962Z,2.53
2019-05-16T02:08:41.531Z,2.57
2019-05-16T02:11:08.510Z,2.70
2019-05-16T02:13:35.498Z,2.60
2019-05-16T02:16:02.062Z,2.63
2019-05-16T02:18:29.020Z,2.80
2019-05-16T02:20:55.719Z,2.47
2019-05-16T02:23:22.298Z,2.80
2019-05-16T02:26:07.954Z,2.93
2019-05-16T02:28:40.138Z,2.60
2019-05-16T02:31:03.323Z,2.80
2019-05-16T02:33:31.724Z,3.00
2019-05-16T02:36:01.829Z,2.70
2019-05-16T02:38:27.159Z,2.90
2019-05-16T02:40:55.169Z,2.77
2019-05-16T02:43:26.299Z,3.03
2019-05-16T02:45:51.939Z,2.80
2019-05-16T02:48:21.318Z,3.00
2019-05-16T02:50:51.072Z,2.90
2019-05-16T02:53:16.748Z,2.90
2019-05-16T02:55:43.328Z,3.00
2019-05-16T02:58:11.546Z,2.53
2019-05-16T03:00:42.438Z,2.90
2019-05-16T03:03:07.148Z,3.53
2019-05-16T03:05:34.032Z,3.27
2019-05-16T03:08:01.437Z,3.83
2019-05-16T03:10:31.044Z,4.00
2019-05-16T03:12:56.995Z,3.60
2019-05-16T03:15:23.902Z,3.50
2019-05-16T03:17:51.278Z,4.10
2019-05-16T03:20:21.000Z,3.40
2019-05-16T03:22:47.642Z,3.50
2019-05-16T03:25:14.216Z,3.83
2019-05-16T03:27:41.491Z,2.77
2019-05-16T03:30:14.980Z,2.70
2019-05-16T03:32:43.816Z,3.00
2019-05-16T03:35:06.524Z,3.10
2019-05-16T03:37:49.979Z,3.27
2019-05-16T03:40:03.040Z,2.80
2019-05-16T03:42:31.048Z,3.27
2019-05-16T03:45:01.588Z,3.10
2019-05-16T03:47:26.723Z,3.10
2019-05-16T03:49:53.383Z,3.37
2019-05-16T03:52:20.728Z,3.03
2019-05-16T03:54:50.537Z,3.20
2019-05-16T03:57:16.243Z,3.10
2019-05-16T03:59:43.507Z,3.20
2019-05-16T04:02:10.819Z,3.10
2019-05-16T04:04:37.664Z,88.83
2019-05-16T04:07:04.308Z,13.53
2019-05-16T04:09:31.502Z,3.87
2019-05-16T04:12:01.533Z,3.33
2019-05-16T04:14:30.687Z,3.00
2019-05-16T04:16:57.534Z,3.40
2019-05-16T04:19:24.122Z,2.73
2019-05-16T04:21:51.323Z,3.17
2019-05-16T04:24:21.405Z,2.90
2019-05-16T04:26:46.640Z,3.13
2019-05-16T04:29:13.221Z,3.80
2019-05-16T04:31:41.318Z,3.20
2019-05-16T04:34:11.491Z,3.37
2019-05-16T04:36:37.034Z,4.30
2019-05-16T04:39:04.962Z,4.47
2019-05-16T04:41:31.587Z,9.40
2019-05-16T04:44:01.473Z,8.50
2019-05-16T04:46:26.779Z,4.40
2019-05-16T04:48:53.391Z,4.00
2019-05-16T04:51:21.872Z,3.63
2019-05-16T04:53:50.988Z,4.00
2019-05-16T04:56:17.293Z,4.10
2019-05-16T04:58:43.917Z,4.57
2019-05-16T05:01:11.041Z,3.80
2019-05-16T05:03:40.832Z,3.80
2019-05-16T05:06:06.657Z,3.43
2019-05-16T05:08:49.004Z,3.47
2019-05-16T05:11:01.963Z,3.80
2019-05-16T05:13:30.689Z,3.60
2019-05-16T05:15:57.143Z,3.90
2019-05-16T05:18:23.726Z,4.10
2019-05-16T05:20:52.277Z,4.07
2019-05-16T05:23:20.975Z,3.77
2019-05-16T05:25:47.447Z,3.47
2019-05-16T05:28:14.036Z,3.73
2019-05-16T05:30:41.223Z,3.50
2019-05-16T05:33:10.033Z,3.60
2019-05-16T05:35:36.291Z,3.73
2019-05-16T05:38:02.893Z,4.00
2019-05-16T05:40:29.792Z,3.60
2019-05-16T05:42:56.506Z,4.07
2019-05-16T05:45:23.088Z,3.70
2019-05-16T05:47:50.542Z,3.70
2019-05-16T05:50:19.940Z,3.40
2019-05-16T05:52:46.384Z,28.90
2019-05-16T05:55:13.967Z,5.20
2019-05-16T05:57:40.711Z,4.30
2019-05-16T06:00:09.934Z,3.90
2019-05-16T06:02:36.517Z,3.90
2019-05-16T06:05:04.813Z,4.10
2019-05-16T06:07:31.383Z,3.80
2019-05-16T06:10:00.218Z,3.40
2019-05-16T06:12:26.450Z,4.00
2019-05-16T06:14:53.042Z,16.97
2019-05-16T06:17:20.060Z,8.90
2019-05-16T06:19:49.611Z,3.80
2019-05-16T06:22:15.959Z,4.07
2019-05-16T06:24:42.559Z,4.30
2019-05-16T06:27:09.838Z,4.17
2019-05-16T06:29:36.588Z,3.90
2019-05-16T06:32:03.186Z,3.83
2019-05-16T06:34:30.262Z,3.97
2019-05-16T06:36:57.047Z,3.93
2019-05-16T06:39:23.683Z,4.23
2019-05-16T06:41:50.882Z,4.30
2019-05-16T06:44:20.115Z,4.43
2019-05-16T06:46:59.962Z,4.43
2019-05-16T06:49:15.092Z,14.87
2019-05-16T06:51:41.794Z,4.87
2019-05-16T06:54:10.100Z,4.67
2019-05-16T06:56:36.967Z,4.70
2019-05-16T06:59:03.716Z,4.33
2019-05-16T07:01:30.463Z,4.00
2019-05-16T07:03:57.198Z,3.80
2019-05-16T07:06:47.357Z,3.33
2019-05-16T07:08:52.366Z,3.20
2019-05-16T07:11:20.176Z,3.20
2019-05-16T07:13:47.279Z,4.73
2019-05-16T07:16:13.914Z,6.60
2019-05-16T07:18:40.494Z,3.30
2019-05-16T07:21:07.239Z,3.30
2019-05-16T07:23:33.863Z,2.87
2019-05-16T07:26:00.938Z,3.10
2019-05-16T07:28:29.876Z,3.67
2019-05-16T07:30:56.266Z,3.10
2019-05-16T07:33:22.894Z,2.87
2019-05-16T07:35:51.229Z,3.47
2019-05-16T07:38:20.353Z,3.70
2019-05-16T07:40:47.503Z,3.40
2019-05-16T07:43:14.143Z,3.60
2019-05-16T07:45:40.876Z,3.90
2019-05-16T07:48:07.520Z,3.40
2019-05-16T07:50:34.254Z,2.70
2019-05-16T07:53:00.887Z,2.50
2019-05-16T07:55:27.551Z,4.03
2019-05-16T07:57:54.182Z,2.37
2019-05-16T08:00:21.824Z,2.17
2019-05-16T08:02:50.599Z,2.60
2019-05-16T08:05:17.366Z,2.37
2019-05-16T08:07:44.313Z,2.30
2019-05-16T08:10:11.654Z,2.43
2019-05-16T08:12:40.737Z,2.50
2019-05-16T08:15:10.017Z,2.70
2019-05-16T08:17:36.127Z,4.57
2019-05-16T08:20:03.359Z,4.87
2019-05-16T08:22:30.606Z,4.37
2019-05-16T08:24:59.990Z,3.77
2019-05-16T08:27:26.059Z,4.50
2019-05-16T08:29:52.695Z,4.67
2019-05-16T08:32:22.930Z,3.70
2019-05-16T08:34:51.221Z,3.57
2019-05-16T08:37:34.062Z,3.53
2019-05-16T08:39:45.345Z,3.90
2019-05-16T08:42:13.100Z,3.40
2019-05-16T08:44:41.835Z,3.60
2019-05-16T08:47:11.916Z,3.10
2019-05-16T08:49:37.546Z,3.50
2019-05-16T08:52:04.626Z,3.17
2019-05-16T08:54:32.011Z,4.23
2019-05-16T08:59:27.635Z,2.00
2019-05-16T09:04:24.955Z,2.37
2019-05-16T09:06:52.628Z,2.47
2019-05-16T09:09:36.512Z,2.77
2019-05-16T09:10:30.921Z,2.10
2019-05-16T09:11:48.820Z,2.40
2019-05-16T09:14:17.087Z,3.07
2019-05-16T09:16:44.083Z,2.20
2019-05-16T09:18:30.747Z,2.50
2019-05-16T09:19:10.715Z,2.37
2019-05-16T09:21:38.386Z,2.63
2019-05-16T09:24:06.792Z,3.33
2019-05-16T09:26:33.723Z,2.30
2019-05-16T09:29:00.343Z,2.10
2019-05-16T09:31:27.642Z,1.63
2019-05-16T09:33:56.766Z,1.70
2019-05-16T09:36:23.049Z,2.13
2019-05-16T09:38:49.931Z,2.10
2019-05-16T09:41:17.005Z,1.90
2019-05-16T09:43:43.791Z,2.10
2019-05-16T09:46:10.474Z,1.90
2019-05-16T09:48:37.981Z,1.90
2019-05-16T09:51:06.692Z,2.00
2019-05-16T09:53:33.563Z,2.00
2019-05-16T09:56:00.279Z,6.17
2019-05-16T09:58:27.780Z,3.70
2019-05-16T10:00:57.527Z,2.13
2019-05-16T10:03:23.721Z,2.00
2019-05-16T10:05:50.922Z,2.10
2019-05-16T10:08:18.017Z,2.20
2019-05-16T10:10:44.635Z,2.10
2019-05-16T10:13:11.282Z,2.43
2019-05-16T10:15:37.907Z,1.97
2019-05-16T10:18:07.358Z,2.13
2019-05-16T10:20:33.055Z,2.30
2019-05-16T10:22:59.691Z,2.20
2019-05-16T10:25:27.729Z,2.20
2019-05-16T10:27:54.773Z,2.50
2019-05-16T10:30:21.626Z,2.13
2019-05-16T10:33:18.564Z,2.60
2019-05-16T10:35:42.808Z,2.43
2019-05-16T10:38:09.414Z,2.33
2019-05-16T10:40:36.904Z,2.43
2019-05-16T10:43:03.875Z,2.40
2019-05-16T10:45:30.618Z,2.30
2019-05-16T10:47:57.230Z,2.40
2019-05-16T10:50:23.905Z,2.40
2019-05-16T10:53:13.306Z,2.20
2019-05-16T10:55:19.136Z,2.63
2019-05-16T10:57:47.512Z,2.70
2019-05-16T11:00:36.860Z,2.77
2019-05-16T11:02:43.479Z,2.53
2019-05-16T11:05:25.666Z,2.57
2019-05-16T11:07:38.968Z,2.80
2019-05-16T11:10:07.015Z,2.63
2019-05-16T11:12:47.580Z,2.60
2019-05-16T11:15:04.520Z,3.10
2019-05-16T11:17:31.154Z,3.17
2019-05-16T11:19:57.786Z,3.43
2019-05-16T11:22:29.466Z,3.27
2019-05-16T11:24:53.288Z,3.67
2019-05-16T11:27:19.919Z,3.40
2019-05-16T11:29:47.264Z,3.47
2019-05-16T11:32:14.150Z,3.77
2019-05-16T11:34:40.798Z,3.50
2019-05-16T11:37:07.494Z,3.30
2019-05-16T11:39:34.194Z,3.60
2019-05-16T11:42:00.828Z,3.63
2019-05-16T11:44:28.756Z,3.67
2019-05-16T11:46:57.644Z,4.00
2019-05-16T11:49:24.418Z,3.73
2019-05-16T11:51:51.062Z,4.17
2019-05-16T11:54:17.687Z,4.10
2019-05-16T11:56:46.266Z,3.60
2019-05-16T11:59:12.830Z,3.57
2019-05-16T12:01:39.458Z,3.80
2019-05-16T12:04:07.983Z,4.00
2019-05-16T12:06:37.276Z,3.90
2019-05-16T12:09:06.682Z,3.90
2019-05-16T12:11:33.479Z,4.00
2019-05-16T12:14:00.378Z,3.87
2019-05-16T12:16:27.681Z,4.20
2019-05-16T12:18:57.007Z,4.10
2019-05-16T12:21:23.403Z,4.20
2019-05-16T12:23:50.066Z,3.90
2019-05-16T12:26:17.495Z,4.43
2019-05-16T12:28:44.526Z,3.80
2019-05-16T12:31:11.143Z,4.30
2019-05-16T12:33:38.102Z,4.70
2019-05-16T12:36:07.412Z,4.63
2019-05-16T12:38:33.556Z,4.80
2019-05-16T12:41:00.163Z,4.43
2019-05-16T12:43:44.248Z,4.17
2019-05-16T12:45:56.945Z,4.47
2019-05-16T12:48:23.842Z,3.97
2019-05-16T12:50:50.586Z,3.63
2019-05-16T12:53:17.296Z,3.63
2019-05-16T12:55:43.931Z,3.83
2019-05-16T12:58:14.377Z,3.70
2019-05-16T13:00:43.994Z,3.77
2019-05-16T13:03:07.702Z,3.77
2019-05-16T13:05:34.447Z,3.87
2019-05-16T13:08:01.067Z,3.30
2019-05-16T13:10:27.808Z,3.73
2019-05-16T13:12:57.695Z,4.20
2019-05-16T13:15:23.139Z,4.20
2019-05-16T13:17:49.750Z,3.90
2019-05-16T13:20:17.281Z,5.13
2019-05-16T13:22:44.131Z,4.17
2019-05-16T13:25:11.050Z,3.77
2019-05-16T13:27:37.781Z,3.70
2019-05-16T13:30:10.636Z,3.87
2019-05-16T13:32:37.696Z,4.57
2019-05-16T13:35:07.643Z,4.00
2019-05-16T13:37:34.647Z,4.13
2019-05-16T13:40:02.697Z,4.60
2019-05-16T13:42:29.451Z,4.00
2019-05-16T13:44:57.901Z,4.10
2019-05-16T13:47:26.794Z,4.53
2019-05-16T13:49:53.119Z,3.70
2019-05-16T13:52:19.762Z,3.97
2019-05-16T13:54:46.370Z,3.90
2019-05-16T13:57:13.002Z,3.90
2019-05-16T13:59:39.611Z,3.90
2019-05-16T14:02:07.966Z,3.80
2019-05-16T14:04:37.089Z,3.63
2019-05-16T14:07:03.452Z,4.20
2019-05-16T14:09:30.078Z,3.67
2019-05-16T14:11:56.689Z,4.10
2019-05-16T14:14:34.841Z,3.70
2019-05-16T14:16:52.063Z,4.10
2019-05-16T14:19:18.712Z,3.90
2019-05-16T14:21:47.820Z,3.70
2019-05-16T14:24:14.178Z,4.07
2019-05-16T14:26:40.743Z,3.70
2019-05-16T14:29:08.086Z,3.40
2019-05-16T14:31:37.377Z,3.60
2019-05-16T14:34:03.338Z,3.50
2019-05-16T14:36:29.898Z,3.70
2019-05-16T14:38:57.503Z,3.27
2019-05-16T14:41:24.770Z,3.53
2019-05-16T14:43:51.335Z,3.53
2019-05-16T14:46:18.506Z,3.40
2019-05-16T14:48:45.555Z,3.43
2019-05-16T14:51:12.383Z,3.50
2019-05-16T14:53:39.014Z,3.70
2019-05-16T14:56:07.223Z,3.70
2019-05-16T14:58:37.942Z,3.83
2019-05-16T15:01:03.774Z,3.47
2019-05-16T15:03:30.348Z,3.70
2019-05-16T15:05:58.966Z,5.63
2019-05-16T15:08:25.498Z,6.60
2019-05-16T15:10:52.166Z,3.60
2019-05-16T15:13:18.903Z,4.10
2019-05-16T15:15:46.569Z,4.23
2019-05-16T15:18:13.697Z,3.87
2019-05-16T15:20:40.447Z,4.67
2019-05-16T15:23:07.831Z,4.50
2019-05-16T15:25:37.241Z,4.60
2019-05-16T15:28:03.246Z,4.33
2019-05-16T15:30:29.831Z,4.37
2019-05-16T15:32:56.928Z,5.00
2019-05-16T15:35:23.863Z,4.40
2019-05-16T15:37:50.499Z,4.40
2019-05-16T15:40:17.901Z,4.73
2019-05-16T15:42:44.846Z,5.80
2019-05-16T15:45:12.810Z,4.53
2019-05-16T15:47:39.534Z,4.77
2019-05-16T15:50:08.264Z,3.87
2019-05-16T15:52:38.140Z,4.47
2019-05-16T15:55:09.623Z,3.97
2019-05-16T15:57:37.502Z,3.73
2019-05-16T16:00:09.867Z,3.53
2019-05-16T16:02:32.873Z,3.43
2019-05-16T16:04:59.456Z,3.90
2019-05-16T16:07:27.105Z,4.10
2019-05-16T16:09:54.015Z,3.90
2019-05-16T16:12:20.634Z,4.20
2019-05-16T16:14:47.273Z,4.67
2019-05-16T16:17:14.279Z,4.90
2019-05-16T16:19:41.138Z,4.00
2019-05-16T16:22:08.018Z,4.17
2019-05-16T16:24:34.664Z,4.20
2019-05-16T16:27:01.411Z,4.03
2019-05-16T16:29:28.215Z,3.50
2019-05-16T16:31:56.747Z,3.73
2019-05-16T16:34:23.373Z,4.20
2019-05-16T16:36:50.082Z,3.70
2019-05-16T16:39:16.902Z,3.67
2019-05-16T16:41:43.488Z,3.27
2019-05-16T16:44:10.267Z,3.17
2019-05-16T16:46:37.582Z,4.17
2019-05-16T16:49:04.539Z,4.00
2019-05-16T16:51:31.423Z,3.67
2019-05-16T16:53:58.115Z,3.57
2019-05-16T16:56:27.259Z,3.20
2019-05-16T16:58:53.335Z,3.03
2019-05-16T17:01:19.998Z,3.00
2019-05-16T17:03:47.090Z,6.23
2019-05-16T17:06:14.335Z,4.67
2019-05-16T17:08:42.064Z,4.23
2019-05-16T17:11:08.771Z,4.13
2019-05-16T17:13:36.622Z,3.30
2019-05-16T17:16:03.686Z,3.77
2019-05-16T17:18:30.319Z,4.10
2019-05-16T17:20:57.155Z,4.63
2019-05-16T17:23:26.268Z,4.43
2019-05-16T17:25:52.506Z,3.57
2019-05-16T17:28:19.142Z,3.67
2019-05-16T17:30:47.062Z,4.63
2019-05-16T17:33:17.875Z,4.70
2019-05-16T17:35:42.716Z,4.73
2019-05-16T17:38:09.378Z,5.27
2019-05-16T17:40:38.056Z,5.03
2019-05-16T17:43:04.602Z,5.10
2019-05-16T17:45:31.325Z,5.07
2019-05-16T17:47:57.963Z,5.00
2019-05-16T17:50:26.278Z,11.50
2019-05-16T17:52:53.142Z,6.80
2019-05-16T17:55:19.855Z,5.63
2019-05-16T17:57:46.594Z,5.97
2019-05-16T18:00:22.029Z,7.10
2019-05-16T18:02:42.514Z,6.87
2019-05-16T18:05:09.466Z,6.67
2019-05-16T18:07:36.886Z,7.03
2019-05-16T18:10:07.261Z,7.30
2019-05-16T18:12:33.323Z,6.70
2019-05-16T18:14:59.958Z,6.67
2019-05-16T18:17:26.884Z,7.00
2019-05-16T18:19:54.323Z,6.23
2019-05-16T18:22:20.951Z,17.43
2019-05-16T18:24:47.703Z,9.27
2019-05-16T18:27:14.366Z,6.90
2019-05-16T18:29:40.997Z,6.43
2019-05-16T18:32:07.610Z,6.80
2019-05-16T18:34:34.318Z,6.00
2019-05-16T18:37:00.954Z,5.73
2019-05-16T18:39:27.594Z,5.43
2019-05-16T18:41:56.220Z,6.07
2019-05-16T18:44:22.766Z,6.03
2019-05-16T18:46:49.399Z,6.77
2019-05-16T18:49:16.031Z,7.20
2019-05-16T18:51:42.771Z,5.57
2019-05-16T18:54:09.484Z,6.03
2019-05-16T18:56:36.624Z,5.80
2019-05-16T18:59:03.381Z,5.73
2019-05-16T19:01:30.223Z,6.33
2019-05-16T19:03:57.572Z,5.90
2019-05-16T19:06:24.522Z,6.20
2019-05-16T19:08:51.464Z,5.10
2019-05-16T19:11:18.281Z,5.03
2019-05-16T19:13:47.289Z,4.73
2019-05-16T19:16:13.610Z,5.03
2019-05-16T19:18:40.272Z,5.23
2019-05-16T19:21:07.565Z,5.13
2019-05-16T19:23:34.442Z,5.13
2019-05-16T19:26:01.058Z,5.23
2019-05-16T19:28:28.668Z,7.90
2019-05-16T19:30:57.197Z,10.00
2019-05-16T19:33:24.106Z,6.37
2019-05-16T19:35:50.799Z,5.70
2019-05-16T19:38:17.423Z,5.17
2019-05-16T19:40:46.786Z,5.40
2019-05-16T19:43:12.666Z,5.03
2019-05-16T19:45:39.240Z,5.00
2019-05-16T19:48:07.186Z,4.70
2019-05-16T19:50:34.326Z,4.80
2019-05-16T19:53:01.178Z,5.10
2019-05-16T19:55:27.754Z,5.40
2019-05-16T19:57:54.315Z,22.03
2019-05-16T20:00:21.094Z,11.97
2019-05-16T20:02:47.655Z,6.37
2019-05-16T20:05:16.983Z,5.27
2019-05-16T20:07:43.717Z,5.17
2019-05-16T20:10:12.194Z,4.93
2019-05-16T20:12:38.755Z,5.00
2019-05-16T20:15:10.921Z,4.90
2019-05-16T20:17:37.753Z,4.97
2019-05-16T20:20:04.480Z,5.00
2019-05-16T20:22:31.047Z,5.50
2019-05-16T20:24:57.718Z,5.60
2019-05-16T20:27:24.282Z,5.60
2019-05-16T20:29:50.873Z,5.47
2019-05-16T20:32:17.505Z,5.90
2019-05-16T20:34:44.094Z,5.20
2019-05-16T20:37:10.658Z,5.90
2019-05-16T20:39:37.650Z,6.00
2019-05-16T20:42:04.481Z,6.70
2019-05-16T20:44:31.115Z,6.90
2019-05-16T20:46:57.723Z,6.80
2019-05-16T20:49:24.385Z,6.67
2019-05-16T20:52:07.081Z,7.13
2019-05-16T20:54:33.962Z,7.50
2019-05-16T20:57:00.576Z,7.30
2019-05-16T20:59:27.223Z,7.47
2019-05-16T21:01:53.939Z,7.93
2019-05-16T21:04:20.578Z,9.50
2019-05-16T21:07:05.711Z,9.87
2019-05-16T21:09:27.927Z,10.50
2019-05-16T21:11:57.014Z,9.50
2019-05-16T21:14:23.212Z,9.63
2019-05-16T21:17:08.423Z,10.30
2019-05-16T21:19:36.291Z,10.70
2019-05-16T21:22:04.111Z,11.20
2019-05-16T21:24:30.851Z,11.07
2019-05-16T21:26:57.487Z,11.90
2019-05-16T21:29:24.153Z,11.93
2019-05-16T21:31:50.892Z,12.23
2019-05-16T21:34:19.173Z,12.20
2019-05-16T21:36:46.970Z,11.60
2019-05-16T21:39:13.807Z,12.30
2019-05-16T21:41:40.506Z,12.40
2019-05-16T21:44:07.139Z,12.33
2019-05-16T21:46:36.392Z,13.03
2019-05-16T21:49:02.307Z,13.73
2019-05-16T21:51:28.927Z,15.03
2019-05-16T21:53:56.381Z,15.40
2019-05-16T21:56:23.278Z,16.07
2019-05-16T21:58:49.916Z,16.17
2019-05-16T22:01:18.336Z,16.50
2019-05-16T22:03:47.000Z,17.13
2019-05-16T22:06:13.603Z,17.23
2019-05-16T22:08:49.422Z,20.27
2019-05-16T22:11:17.283Z,17.03
2019-05-16T22:13:46.358Z,16.73
2019-05-16T22:16:12.995Z,16.97
2019-05-16T22:18:39.630Z,18.60
2019-05-16T22:21:07.573Z,19.40
2019-05-16T22:23:34.614Z,18.07
2019-05-16T22:26:01.235Z,19.40
2019-05-16T22:28:30.099Z,19.50
2019-05-16T22:30:58.493Z,20.83
2019-05-16T22:33:26.765Z,20.50
2019-05-16T22:35:53.602Z,21.07
2019-05-16T22:38:20.234Z,20.77
2019-05-16T22:40:49.803Z,31.03
2019-05-16T22:43:17.376Z,22.03
2019-05-16T22:45:46.666Z,25.83
2019-05-16T22:48:12.947Z,31.03
2019-05-16T22:50:45.838Z,25.67
2019-05-16T22:53:12.797Z,35.97
2019-05-16T22:55:40.025Z,22.07
2019-05-16T22:58:07.816Z,20.13
2019-05-16T23:00:35.046Z,21.03
2019-05-16T23:03:06.819Z,19.43
2019-05-16T23:05:33.658Z,20.13
2019-05-16T23:08:04.911Z,19.53
2019-05-16T23:10:28.869Z,19.93
2019-05-16T23:12:57.232Z,20.60
2019-05-16T23:15:26.412Z,19.10
2019-05-16T23:17:52.750Z,20.33
2019-05-16T23:20:19.384Z,19.53
2019-05-16T23:22:47.051Z,19.43
2019-05-16T23:25:14.195Z,19.30
2019-05-16T23:27:40.922Z,19.80
2019-05-16T23:30:07.938Z,19.33
2019-05-16T23:32:36.528Z,18.77
2019-05-16T23:35:06.660Z,18.90
2019-05-16T23:37:33.144Z,18.90
2019-05-16T23:39:59.930Z,20.60
2019-05-16T23:42:26.564Z,20.40
2019-05-16T23:44:53.219Z,19.60
2019-05-16T23:47:19.846Z,19.60
2019-05-16T23:49:47.353Z,18.40
2019-05-16T23:52:16.649Z,20.20
2019-05-16T23:54:42.710Z,19.37
2019-05-16T23:57:09.699Z,20.00
2019-05-16T23:59:36.853Z,19.73
